Latest Weather Observations for Katanning RS

IDW60801

Issued at 1:32 pm WST Sunday 7 February 2016 (issued every 30 minutes, with the page automatically refreshed every 10 minutes)

About weather observations | Map of weather stations | Latest weather observations for WA | Other Formats
Station Details ID: 010916 Name: KATANNING Lat: -33.69 Lon: 117.61 Height: 320.0 m
Data from the previous 72 hours. | See also: Recent months at Katanning RS
Date/Time
WST
Temp
°C
App
Temp
°C
Dew
Point
Rel
Hum
%
Delta-T
°C
Wind Press
QNH
hPa
Press
MSL
hPa
Rain
since 9 am
mm
Dir
 
Spd
km/h
Gust
km/h
Spd
kts
Gust
kts
07/01:30pm 32.3 29.5 8.5 23 13.4 N 13 20 7 11 1018.4 1017.1 0.0
07/01:00pm 31.6 29.0 9.2 25 12.7 NNE 13 28 7 15 1018.8 1017.5 0.0
07/12:30pm 30.4 28.9 9.3 27 12.0 NE 7 20 4 11 1019.1 1017.7 0.0
07/12:00pm 29.2 27.5 9.9 30 11.0 NE 9 19 5 10 1019.5 1018.1 0.0
07/11:30am 28.9 25.9 10.6 32 10.5 NE 17 33 9 18 1019.8 1018.4 0.0
07/11:00am 27.6 24.6 10.8 35 9.6 ENE 17 26 9 14 1020.0 1018.6 0.0
07/10:30am 26.7 24.0 11.6 39 8.7 E 17 26 9 14 1020.2 1018.8 0.0
07/10:00am 25.0 22.2 12.6 46 7.2 ENE 19 28 10 15 1020.4 1019.0 0.0
07/09:30am 23.9 21.3 13.2 51 6.3 E 19 28 10 15 1020.7 1019.4 0.0
07/09:00am 22.2 19.3 13.0 56 5.3 E 20 28 11 15 1020.6 1019.2 0.0
07/08:30am 21.1 18.6 13.5 62 4.4 E 19 28 10 15 1020.6 1019.2 0.0
07/08:00am 19.8 17.4 13.7 68 3.5 E 19 24 10 13 1020.7 1019.4 0.0
07/07:30am 18.4 15.8 13.3 72 2.9 ESE 19 24 10 13 1020.6 1019.2 0.0
07/07:00am 17.6 14.8 13.1 75 2.6 E 20 28 11 15 1020.4 1019.0 0.0
07/06:30am 16.9 15.3 12.8 77 2.3 ESE 13 20 7 11 1020.3 1018.9 0.0
07/06:00am 16.3 14.7 12.8 80 2.0 ESE 13 19 7 10 1020.2 1018.8 0.0
07/05:30am 16.0 14.3 12.6 80 1.9 ESE 13 19 7 10 1019.8 1018.4 0.0
07/05:00am 16.3 14.6 12.5 78 2.1 ESE 13 19 7 10 1019.8 1018.4 0.0
07/04:30am 16.7 14.6 12.5 76 2.4 ESE 15 20 8 11 1019.8 1018.4 0.0
07/04:00am 16.9 14.0 12.4 75 2.5 E 19 26 10 14 1019.8 1018.4 0.0
07/03:30am 17.3 15.1 13.2 77 2.3 ESE 17 22 9 12 1019.7 1018.3 0.0
07/03:00am 17.1 14.7 12.8 76 2.4 E 17 26 9 14 1019.8 1018.4 0.0
07/02:30am 16.8 14.0 12.5 76 2.4 ESE 19 26 10 14 1019.6 1018.2 0.0
07/02:00am 16.7 13.9 12.5 76 2.4 ESE 19 28 10 15 1019.6 1018.2 0.0
07/01:30am 16.8 13.3 12.3 75 2.5 ESE 22 32 12 17 1019.8 1018.4 0.0
07/01:00am 17.1 14.3 12.6 75 2.5 ESE 19 26 10 14 1019.9 1018.5 0.0
07/12:30am 17.2 14.9 12.9 76 2.4 ESE 17 24 9 13 1020.1 1018.7 0.0
07/12:00am 17.1 14.2 13.0 77 2.3 SE 20 28 11 15 1020.3 1018.9 0.0
 
Date/Time
WST
Temp
°C
App
Temp
°C
Dew
Point
Rel
Hum
%
Delta-T
°C
Wind Press
QNH
hPa
Press
MSL
hPa
Rain
since 9 am
mm
Dir
 
Spd
km/h
Gust
km/h
Spd
kts
Gust
kts
06/11:30pm 16.8 13.8 12.7 77 2.3 ESE 20 28 11 15 1020.4 1019.0 0.0
06/11:00pm 16.6 13.2 12.6 77 2.2 SE 22 33 12 18 1020.5 1019.1 0.0
06/10:30pm 16.8 13.4 12.5 76 2.4 SE 22 32 12 17 1020.5 1019.1 0.0
06/10:00pm 17.0 14.2 12.5 75 2.5 ESE 19 26 10 14 1020.5 1019.1 0.0
06/09:30pm 17.3 13.6 12.8 75 2.5 ESE 24 32 13 17 1020.4 1019.0 0.0
06/09:00pm 17.9 14.2 12.8 72 2.9 ESE 24 33 13 18 1020.2 1018.8 0.0
06/08:30pm 18.6 15.0 13.0 70 3.2 ESE 24 37 13 20 1019.7 1018.3 0.0
06/08:00pm 19.4 15.4 13.1 67 3.6 SE 26 37 14 20 1019.3 1017.9 0.0
06/07:30pm 20.7 17.2 13.4 63 4.2 SE 24 33 13 18 1018.7 1017.4 0.0
06/07:00pm 22.0 17.8 13.4 58 5.0 SE 28 39 15 21 1018.3 1017.0 0.0
06/06:30pm 24.1 19.2 12.4 48 6.8 SE 30 43 16 23 1017.7 1016.3 0.0
06/06:00pm 26.2 21.1 11.9 41 8.3 SE 30 39 16 21 1017.0 1015.6 0.0
06/05:30pm 28.4 24.2 11.0 34 10.1 SE 24 35 13 19 1016.4 1015.0 0.0
06/05:00pm 30.1 25.8 10.6 30 11.3 SSE 24 33 13 18 1016.1 1014.7 0.0
06/04:30pm 30.3 27.8 9.8 28 11.7 SE 13 20 7 11 1016.0 1014.6 0.0
06/04:00pm 30.3 28.2 9.8 28 11.7 SE 11 22 6 12 1016.0 1014.6 0.0
06/03:30pm 30.8 29.3 10.7 29 11.7 ESE 9 28 5 15 1016.2 1014.8 0.0
06/03:00pm 30.2 28.4 10.7 30 11.3 ESE 11 22 6 12 1016.4 1015.0 0.0
06/02:30pm 30.1 27.8 10.6 30 11.3 ESE 13 20 7 11 1016.5 1015.1 0.0
06/02:00pm 30.2 28.0 10.7 30 11.3 SE 13 24 7 13 1016.8 1015.4 0.0
06/01:30pm 29.6 27.4 10.7 31 10.9 E 13 20 7 11 1017.1 1015.7 0.0
06/01:00pm 28.6 26.5 11.2 34 10.1 E 13 24 7 13 1017.4 1016.0 0.0
06/12:30pm 28.7 27.5 11.7 35 10.0 ESE 9 19 5 10 1017.5 1016.1 0.0
06/12:00pm 27.3 25.1 10.9 36 9.4 SE 13 26 7 14 1017.8 1016.4 0.0
06/11:30am 26.4 24.6 12.1 41 8.3 SE 13 22 7 12 1018.2 1016.9 0.0
06/11:00am 24.9 23.0 11.8 44 7.5 ESE 13 26 7 14 1018.3 1017.0 0.0
06/10:30am 24.3 22.3 12.6 48 6.8 SE 15 24 8 13 1018.7 1017.4 0.0
06/10:00am 23.6 21.9 13.5 53 5.9 E 15 22 8 12 1018.6 1017.3 0.0
06/09:30am 22.1 20.1 12.6 55 5.5 ESE 15 24 8 13 1018.6 1017.3 0.0
06/09:00am 20.7 18.2 13.6 64 4.1 SE 19 26 10 14 1018.6 1017.3 0.0
06/08:30am 19.6 17.2 13.8 69 3.4 SE 19 26 10 14 1018.6 1017.3 0.0
06/08:00am 17.8 15.4 13.7 77 2.4 SE 19 26 10 14 1018.8 1017.5 0.0
06/07:30am 16.5 14.3 13.2 81 1.9 ESE 17 22 9 12 1018.3 1017.0 0.0
06/07:00am 16.2 14.5 13.7 85 1.4 SE 15 20 8 11 1018.0 1016.7 0.0
06/06:30am 15.7 14.2 13.2 85 1.4 SE 13 17 7 9 1017.8 1016.4 0.0
06/06:00am 15.2 14.1 13.1 87 1.2 SE 11 13 6 7 1017.6 1016.2 0.0
06/05:30am 15.1 14.3 13.0 87 1.2 SSE 9 13 5 7 1017.4 1016.0 0.0
06/05:00am 15.4 13.9 13.2 87 1.2 SSE 13 22 7 12 1017.3 1015.9 0.0
06/04:30am 15.4 14.3 13.2 87 1.2 S 11 17 6 9 1016.8 1015.4 0.0
06/04:00am 15.5 13.7 13.3 87 1.2 S 15 22 8 12 1016.6 1015.2 0.0
06/03:30am 15.4 13.1 13.1 86 1.3 S 17 20 9 11 1016.7 1015.3 0.0
06/03:00am 15.8 13.4 12.7 82 1.7 S 17 24 9 13 1016.6 1015.2 0.0
06/02:30am 16.4 14.0 12.6 78 2.1 S 17 20 9 11 1016.5 1015.1 0.0
06/02:00am 16.7 14.6 12.5 76 2.4 S 15 20 8 11 1016.2 1014.8 0.0
06/01:30am 17.1 15.3 12.2 73 2.7 S 13 19 7 10 1016.4 1015.0 0.0
06/01:00am 17.4 16.3 11.9 70 3.1 SSE 9 13 5 7 1016.6 1015.2 0.0
06/12:30am 17.8 16.7 11.8 68 3.3 SSE 9 13 5 7 1016.7 1015.3 0.0
06/12:00am 18.4 16.5 11.7 65 3.7 SSE 13 17 7 9 1017.0 1015.6 0.0
 
Date/Time
WST
Temp
°C
App
Temp
°C
Dew
Point
Rel
Hum
%
Delta-T
°C
Wind Press
QNH
hPa
Press
MSL
hPa
Rain
since 9 am
mm
Dir
 
Spd
km/h
Gust
km/h
Spd
kts
Gust
kts
05/11:30pm 19.0 16.9 11.3 61 4.3 S 13 19 7 10 1017.1 1015.7 0.0
05/11:00pm 19.5 17.0 11.0 58 4.7 S 15 20 8 11 1017.2 1015.8 0.0
05/10:30pm 20.3 17.5 10.1 52 5.6 S 15 20 8 11 1017.3 1015.9 0.0
05/10:00pm 21.2 18.4 10.1 49 6.1 S 15 19 8 10 1017.3 1015.9 0.0
05/09:30pm 21.9 19.1 10.1 47 6.5 SSE 15 20 8 11 1017.3 1015.9 0.0
05/09:00pm 22.8 19.5 9.6 43 7.2 SSE 17 22 9 12 1016.9 1015.5 0.0
05/08:30pm 23.7 20.0 10.0 42 7.6 SSE 20 26 11 14 1016.5 1015.1 0.0
05/08:00pm 24.4 21.0 10.7 42 7.7 SSE 19 24 10 13 1016.2 1014.8 0.0
05/07:30pm 25.0 21.1 10.8 41 8.1 S 22 35 12 19 1015.7 1014.3 0.0
05/07:00pm 25.9 22.0 10.9 39 8.6 SSE 22 30 12 16 1015.2 1013.9 0.0
05/06:30pm 27.0 21.7 11.1 37 9.1 S 30 46 16 25 1014.8 1013.4 0.0
05/06:00pm 29.7 24.8 9.8 29 11.4 S 26 37 14 20 1014.1 1012.7 0.0
05/05:30pm 33.4 29.7 2.3 14 16.0 SSE 11 17 6 9 1013.6 1012.2 0.0
05/05:00pm 33.8 31.1 2.6 14 16.2 S 6 19 3 10 1013.5 1012.1 0.0
05/04:30pm 33.3 29.6 2.2 14 16.0 SW 11 24 6 13 1013.7 1012.3 0.0
05/04:00pm 34.2 30.0 1.9 13 16.6 W 13 20 7 11 1013.9 1012.5 0.0
05/03:30pm 33.5 29.0 2.4 14 16.0 SW 15 24 8 13 1014.0 1012.6 0.0
05/03:00pm 33.8 30.9 2.6 14 16.2 WNW 7 17 4 9 1014.3 1012.9 0.0
05/02:30pm 33.0 30.7 2.9 15 15.6 SE 4 11 2 6 1014.5 1013.1 0.0
05/02:00pm 32.6 29.7 2.6 15 15.4 W 7 17 4 9 1014.8 1013.4 0.0
05/01:30pm 32.1 28.9 3.1 16 15.0 WNW 9 24 5 13 1015.0 1013.6 0.0
05/01:00pm 32.2 29.0 3.2 16 15.0 NW 9 19 5 10 1015.2 1013.9 0.0
05/12:30pm 31.1 28.6 4.0 18 14.2 SW 6 15 3 8 1015.7 1014.3 0.0
05/12:00pm 31.3 27.0 3.4 17 14.4 NW 15 22 8 12 1016.3 1014.9 0.0
05/11:30am 31.0 27.9 5.4 20 13.7 N 11 20 6 11 1016.4 1015.0 0.0
05/11:00am 29.8 26.9 4.4 20 13.2 WNW 9 20 5 11 1016.9 1015.5 0.0
05/10:30am 29.4 25.8 4.8 21 12.9 NNW 13 19 7 10 1017.2 1015.8 0.0
05/10:00am 28.9 25.2 6.3 24 12.1 N 15 24 8 13 1017.4 1016.0 0.0
05/09:30am 26.7 22.7 6.7 28 10.7 NNW 17 22 9 12 1017.7 1016.3 0.0
05/09:00am 25.6 22.1 7.2 31 9.8 N 15 20 8 11 1017.9 1016.5 0.0
05/08:30am 23.9 20.6 7.9 36 8.6 N 15 20 8 11 1018.0 1016.7 0.0
05/08:00am 22.3 19.4 9.5 44 7.0 N 15 20 8 11 1018.1 1016.8 0.0
05/07:30am 20.3 18.4 10.4 53 5.4 NNE 11 17 6 9 1018.1 1016.8 0.0
05/07:00am 18.4 17.0 11.0 62 4.1 NNE 9 11 5 6 1018.1 1016.8 0.0
05/06:30am 17.1 16.6 10.9 67 3.4 NNE 4 6 2 3 1017.9 1016.5 0.0
05/06:00am 15.7 14.6 10.5 71 2.8 NNE 7 9 4 5 1017.7 1016.3 0.0
05/05:30am 15.6 14.4 10.4 71 2.8 NE 7 7 4 4 1017.6 1016.2 0.0
05/05:00am 16.0 14.8 10.3 69 3.0 NNE 7 9 4 5 1017.4 1016.0 0.0
05/04:30am 15.9 14.9 10.2 69 3.0 NE 6 7 3 4 1016.9 1015.5 0.0
05/04:00am 15.9 14.8 10.0 68 3.1 NE 6 7 3 4 1016.7 1015.3 0.0
05/03:30am 16.3 15.1 10.2 67 3.3 NE 7 9 4 5 1016.8 1015.4 0.0
05/03:00am 16.5 15.4 10.1 66 3.4 NE 6 6 3 3 1017.1 1015.7 0.0
05/02:30am 17.0 16.0 10.4 65 3.6 NE 6 6 3 3 1017.3 1015.9 0.0
05/02:00am 16.7 15.7 10.3 66 3.4 NE 6 7 3 4 1017.4 1016.0 0.0
05/01:30am 17.0 16.1 10.6 66 3.5 NE 6 7 3 4 1017.5 1016.1 0.0
05/01:00am 17.6 16.7 10.7 64 3.8 E 6 7 3 4 1017.9 1016.5 0.0
05/12:30am 18.1 17.1 11.0 63 3.9 ESE 7 9 4 5 1018.2 1016.9 0.0
05/12:00am 18.4 17.6 11.0 62 4.1 E 6 7 3 4 1018.3 1017.0 0.0
 
Date/Time
WST
Temp
°C
App
Temp
°C
Dew
Point
Rel
Hum
%
Delta-T
°C
Wind Press
QNH
hPa
Press
MSL
hPa
Rain
since 9 am
mm
Dir
 
Spd
km/h
Gust
km/h
Spd
kts
Gust
kts
04/11:30pm 19.0 18.2 11.1 60 4.4 E 6 9 3 5 1018.5 1017.2 0.0
04/11:00pm 19.6 17.9 11.1 58 4.7 E 11 15 6 8 1018.4 1017.1 0.0
04/10:30pm 20.4 18.7 11.3 56 5.1 E 11 17 6 9 1018.5 1017.2 0.0
04/10:00pm 20.8 19.5 11.2 54 5.4 E 9 17 5 9 1018.6 1017.3 0.0
04/09:30pm 21.8 19.0 11.2 51 6.0 E 17 26 9 14 1018.7 1017.4 0.0
04/09:00pm 22.6 19.8 11.4 49 6.3 E 17 28 9 15 1018.7 1017.4 0.0
04/08:30pm 23.6 20.3 11.0 45 7.1 ESE 19 28 10 15 1018.4 1017.1 0.0
04/08:00pm 25.3 21.6 7.9 33 9.4 ESE 17 37 9 20 1018.1 1016.8 0.0
04/07:30pm 26.7 24.1 3.2 22 11.8 ESE 6 9 3 5 1017.9 1016.5 0.0
04/07:00pm 28.1 25.7 2.3 19 12.8 ESE 4 6 2 3 1017.7 1016.3 0.0
04/06:30pm 29.5 26.5 1.9 17 13.8 E 7 9 4 5 1017.6 1016.2 0.0
04/06:00pm 29.9 26.4 1.4 16 14.1 E 9 11 5 6 1017.5 1016.1 0.0
04/05:30pm 30.2 26.8 1.6 16 14.3 E 9 15 5 8 1017.6 1016.2 0.0
04/05:00pm 30.3 27.3 1.7 16 14.3 E 7 17 4 9 1017.6 1016.2 0.0
04/04:30pm 30.3 27.0 2.5 17 14.1 E 9 19 5 10 1017.7 1016.3 0.0
04/04:00pm 30.4 25.8 1.8 16 14.3 ENE 15 22 8 12 1017.8 1016.4 0.0
04/03:30pm 29.9 26.4 1.4 16 14.1 E 9 19 5 10 1017.9 1016.5 0.0
04/03:00pm 30.1 26.4 2.4 17 14.0 SSE 11 32 6 17 1018.0 1016.7 0.0
04/02:30pm 29.5 25.3 1.9 17 13.8 ENE 13 22 7 12 1018.4 1017.1 0.0
04/02:00pm 29.4 26.3 3.4 19 13.3 NNE 9 19 5 10 1019.0 1017.6 0.0

Other Formats:

Comma delimited format used in spreadsheet applications
http://www.bom.gov.au/fwo/IDW60801/IDW60801.94641.axf

JavaScript Object Notation format (JSON) in row-major order
http://www.bom.gov.au/fwo/IDW60801/IDW60801.94641.json